createdAt,value
2019-06-08T00:01:58.422Z,99969.22
2019-06-08T00:04:26.950Z,99975.48
2019-06-08T00:06:55.456Z,99957.75
2019-06-08T00:09:24.189Z,99974.16
2019-06-08T00:11:52.773Z,99981.59
2019-06-08T00:14:21.517Z,99983.30
2019-06-08T00:16:50.142Z,99967.23
2019-06-08T00:19:19.452Z,99989.39
2019-06-08T00:21:47.887Z,99991.94
2019-06-08T00:24:16.397Z,99999.19
2019-06-08T00:26:45.285Z,100002.21
2019-06-08T00:29:14.144Z,99992.75
2019-06-08T00:31:42.606Z,100008.99
2019-06-08T00:34:11.176Z,100004.27
2019-06-08T00:36:39.618Z,100007.97
2019-06-08T00:39:09.597Z,100006.98
2019-06-08T00:41:38.570Z,99994.48
2019-06-08T00:44:07.171Z,99997.34
2019-06-08T00:46:35.745Z,100010.17
2019-06-08T00:49:04.331Z,100002.75
2019-06-08T00:51:32.916Z,100003.75
2019-06-08T00:54:01.457Z,100006.80
2019-06-08T00:56:30.068Z,100007.16
2019-06-08T00:58:58.689Z,100017.80
2019-06-08T01:01:28.274Z,100025.54
2019-06-08T01:03:56.936Z,100024.69
2019-06-08T01:06:25.521Z,100002.91
2019-06-08T01:08:54.034Z,100001.91
2019-06-08T01:11:22.675Z,100027.26
2019-06-08T01:13:51.257Z,100038.74
2019-06-08T01:16:20.965Z,100036.87
2019-06-08T01:18:49.555Z,100039.05
2019-06-08T01:21:19.427Z,100036.86
2019-06-08T01:23:48.158Z,100034.67
2019-06-08T01:26:16.718Z,100040.91
2019-06-08T01:28:45.310Z,100021.64
2019-06-08T01:31:13.897Z,100038.88
2019-06-08T01:33:42.414Z,100038.38
2019-06-08T01:36:10.997Z,100051.55
2019-06-08T01:38:39.615Z,100040.41
2019-06-08T01:41:08.133Z,100045.82
2019-06-08T01:43:36.718Z,100049.35
2019-06-08T01:46:05.234Z,100045.96
2019-06-08T01:48:33.741Z,100049.17
2019-06-08T01:51:02.247Z,100040.87
2019-06-08T01:53:31.174Z,100039.21
2019-06-08T01:55:59.858Z,100028.20
2019-06-08T01:58:29.438Z,100039.71
2019-06-08T02:00:58.189Z,100036.16
2019-06-08T02:03:28.077Z,100032.29
2019-06-08T02:05:56.771Z,100012.33
2019-06-08T02:08:26.561Z,100036.34
2019-06-08T02:10:55.181Z,100030.41
2019-06-08T02:13:24.949Z,100031.44
2019-06-08T02:15:53.658Z,100033.30
2019-06-08T02:18:35.424Z,100035.65
2019-06-08T02:20:52.427Z,100037.85
2019-06-08T02:23:21.034Z,100034.14
2019-06-08T02:25:49.474Z,100026.87
2019-06-08T02:28:18.054Z,100043.94
2019-06-08T02:30:46.609Z,100039.91
2019-06-08T02:33:15.120Z,100049.35
2019-06-08T02:35:43.723Z,100063.20
2019-06-08T02:38:12.303Z,100057.98
2019-06-08T02:40:40.887Z,100076.56
2019-06-08T02:43:09.659Z,100073.35
2019-06-08T02:45:40.381Z,100071.50
2019-06-08T02:48:09.324Z,100056.28
2019-06-08T02:50:49.708Z,100069.97
2019-06-08T02:53:19.500Z,100079.09
2019-06-08T02:55:49.519Z,100085.03
2019-06-08T02:58:18.618Z,100078.27
2019-06-08T03:00:48.405Z,100086.03
2019-06-08T03:03:16.990Z,100089.42
2019-06-08T03:05:45.670Z,100100.06
2019-06-08T03:08:14.258Z,100106.81
2019-06-08T03:10:43.063Z,100116.10
2019-06-08T03:13:14.370Z,100110.03
2019-06-08T03:15:43.663Z,100108.66
2019-06-08T03:18:12.510Z,100142.63
2019-06-08T03:20:42.439Z,100061.02
2019-06-08T03:23:11.195Z,100135.69
2019-06-08T03:25:50.700Z,100132.29
2019-06-08T03:28:09.927Z,100136.17
2019-06-08T03:30:45.553Z,100152.38
2019-06-08T03:33:08.882Z,100149.19
2019-06-08T03:35:43.990Z,100152.73
2019-06-08T03:38:07.708Z,100151.53
2019-06-08T03:40:38.035Z,100155.23
2019-06-08T03:43:06.608Z,100181.41
2019-06-08T03:45:36.364Z,100136.80
2019-06-08T03:48:05.071Z,100151.84
2019-06-08T03:50:35.327Z,100167.03
2019-06-08T03:53:03.886Z,100182.56
2019-06-08T03:55:32.326Z,100173.44
2019-06-08T03:58:00.902Z,100176.96
2019-06-08T04:00:29.487Z,100160.23
2019-06-08T04:02:58.110Z,100183.72
2019-06-08T04:05:26.698Z,100183.55
2019-06-08T04:07:55.212Z,100186.89
2019-06-08T04:10:23.687Z,100180.99
2019-06-08T04:12:52.267Z,100179.11
2019-06-08T04:15:20.913Z,100188.53
2019-06-08T04:17:50.360Z,100197.63
2019-06-08T04:20:19.748Z,100195.25
2019-06-08T04:22:48.265Z,100198.80
2019-06-08T04:25:16.914Z,100210.42
2019-06-08T04:27:46.954Z,100190.49
2019-06-08T04:30:16.247Z,100197.91
2019-06-08T04:32:45.035Z,100202.47
2019-06-08T04:35:14.278Z,100207.37
2019-06-08T04:37:44.627Z,100203.63
2019-06-08T04:40:13.310Z,100208.53
2019-06-08T04:42:43.931Z,100209.03
2019-06-08T04:45:12.085Z,100208.67
2019-06-08T04:47:42.650Z,100209.03
2019-06-08T04:50:22.771Z,100214.75
2019-06-08T04:52:42.556Z,100216.78
2019-06-08T04:55:11.273Z,100220.33
2019-06-08T04:57:41.851Z,100237.37
2019-06-08T05:00:12.589Z,100214.43
2019-06-08T05:02:42.153Z,100232.66
2019-06-08T05:05:11.132Z,100232.66
2019-06-08T05:07:41.418Z,100235.00
2019-06-08T05:10:10.139Z,100243.09
2019-06-08T05:12:39.206Z,100244.45
2019-06-08T05:15:08.183Z,100263.20
2019-06-08T05:17:36.796Z,100254.75
2019-06-08T05:20:08.799Z,100247.50
2019-06-08T05:22:39.271Z,100252.41
2019-06-08T05:25:08.154Z,100248.50
2019-06-08T05:27:36.697Z,100256.94
2019-06-08T05:30:09.035Z,100257.63
2019-06-08T05:32:39.395Z,100267.07
2019-06-08T05:35:08.026Z,100263.16
2019-06-08T05:37:36.637Z,100264.19
2019-06-08T05:40:07.138Z,100263.69
2019-06-08T05:42:35.650Z,100261.31
2019-06-08T05:45:06.731Z,100258.93
2019-06-08T05:47:35.317Z,100263.48
2019-06-08T05:50:08.174Z,100245.61
2019-06-08T05:52:36.769Z,100275.63
2019-06-08T05:55:08.542Z,100272.92
2019-06-08T05:57:37.108Z,100268.38
2019-06-08T06:00:10.233Z,100280.20
2019-06-08T06:02:40.154Z,100267.38
2019-06-08T06:05:08.969Z,100271.12
2019-06-08T06:07:37.581Z,100271.80
2019-06-08T06:10:06.569Z,100277.37
2019-06-08T06:12:35.309Z,100286.33
2019-06-08T06:15:05.735Z,100288.35
2019-06-08T06:17:34.327Z,100306.70
2019-06-08T06:20:03.044Z,100278.01
2019-06-08T06:22:31.711Z,100300.45
2019-06-08T06:25:00.303Z,100313.90
2019-06-08T06:27:28.874Z,100310.70
2019-06-08T06:29:57.416Z,100317.77
2019-06-08T06:32:26.019Z,100335.12
2019-06-08T06:34:54.612Z,100335.08
2019-06-08T06:37:23.195Z,100325.30
2019-06-08T06:39:52.247Z,100319.55
2019-06-08T06:42:24.599Z,100326.79
2019-06-08T06:44:52.465Z,100325.97
2019-06-08T06:47:21.082Z,100328.14
2019-06-08T06:49:50.655Z,100352.61
2019-06-08T06:52:19.363Z,100350.77
2019-06-08T06:54:48.956Z,100369.16
2019-06-08T06:57:17.520Z,100361.05
2019-06-08T06:59:47.135Z,100353.28
2019-06-08T07:02:16.260Z,100364.08
2019-06-08T07:04:45.936Z,100362.28
2019-06-08T07:07:14.476Z,100375.41
2019-06-08T07:09:44.285Z,100394.20
2019-06-08T07:12:13.066Z,100375.05
2019-06-08T07:14:41.752Z,100395.00
2019-06-08T07:17:10.333Z,100396.41
2019-06-08T07:19:38.926Z,100411.37
2019-06-08T07:22:07.622Z,100412.73
2019-06-08T07:24:36.217Z,100408.67
2019-06-08T07:27:07.493Z,100412.67
2019-06-08T07:29:35.216Z,100413.52
2019-06-08T07:32:03.996Z,100416.05
2019-06-08T07:34:32.657Z,100419.78
2019-06-08T07:37:01.179Z,100428.62
2019-06-08T07:39:29.646Z,100438.84
2019-06-08T07:41:58.271Z,100418.33
2019-06-08T07:44:26.806Z,100435.66
2019-06-08T07:46:55.818Z,100426.70
2019-06-08T07:49:24.480Z,100460.22
2019-06-08T07:52:02.525Z,100441.88
2019-06-08T07:54:23.421Z,100448.93
2019-06-08T07:56:52.913Z,100446.89
2019-06-08T07:59:21.426Z,100456.91
2019-06-08T08:01:50.023Z,100458.80
2019-06-08T08:04:18.615Z,100482.77
2019-06-08T08:06:48.359Z,100470.66
2019-06-08T08:09:16.849Z,100458.45
2019-06-08T08:11:45.431Z,100471.33
2019-06-08T08:14:13.876Z,100474.88
2019-06-08T08:16:42.507Z,100468.94
2019-06-08T08:19:11.023Z,100464.44
2019-06-08T08:21:40.939Z,100473.41
2019-06-08T08:24:09.545Z,100468.95
2019-06-08T08:26:39.201Z,100474.22
2019-06-08T08:29:08.527Z,100464.94
2019-06-08T08:31:37.464Z,100468.41
2019-06-08T08:34:08.915Z,100472.25
2019-06-08T08:36:38.081Z,100488.73
2019-06-08T08:39:08.668Z,100512.32
2019-06-08T08:41:38.990Z,100516.47
2019-06-08T08:44:08.041Z,100508.31
2019-06-08T08:46:38.741Z,100504.27
2019-06-08T08:49:12.095Z,100514.57
2019-06-08T08:51:37.772Z,100503.95
2019-06-08T08:54:08.779Z,100506.73
2019-06-08T08:56:38.376Z,100519.13
2019-06-08T08:59:07.852Z,100513.06
2019-06-08T09:01:38.325Z,100522.75
2019-06-08T09:04:08.780Z,100502.84
2019-06-08T09:06:38.216Z,100513.56
2019-06-08T09:09:08.869Z,100521.73
2019-06-08T09:11:40.947Z,100524.02
2019-06-08T09:14:13.780Z,100535.02
2019-06-08T09:16:38.566Z,100531.98
2019-06-08T09:19:08.499Z,100531.78
2019-06-08T09:21:38.363Z,100527.58
2019-06-08T09:24:07.807Z,100549.05
2019-06-08T09:26:38.180Z,100546.16
2019-06-08T09:29:10.634Z,100558.64
2019-06-08T09:31:39.087Z,100548.19
2019-06-08T09:34:13.474Z,100550.92
2019-06-08T09:36:40.751Z,100560.08
2019-06-08T09:39:12.625Z,100568.28
2019-06-08T09:41:39.309Z,100566.11
2019-06-08T09:44:10.656Z,100574.86
2019-06-08T09:46:38.526Z,100567.14
2019-06-08T09:49:11.093Z,100559.06
2019-06-08T09:51:37.951Z,100567.38
2019-06-08T09:54:11.841Z,100587.55
2019-06-08T09:56:37.916Z,100594.64
2019-06-08T09:59:10.540Z,100576.36
2019-06-08T10:01:38.440Z,100597.18
2019-06-08T10:04:09.247Z,100608.21
2019-06-08T10:06:37.719Z,100609.58
2019-06-08T10:09:09.142Z,100606.21
2019-06-08T10:11:38.122Z,100610.45
2019-06-08T10:14:11.675Z,100612.30
2019-06-08T10:16:38.184Z,100607.56
2019-06-08T10:19:10.055Z,100613.00
2019-06-08T10:21:38.505Z,100627.56
2019-06-08T10:24:09.449Z,100620.11
2019-06-08T10:26:37.799Z,100631.48
2019-06-08T10:29:09.891Z,100651.11
2019-06-08T10:31:43.072Z,100635.69
2019-06-08T10:34:10.820Z,100646.84
2019-06-08T10:36:38.347Z,100646.12
2019-06-08T10:39:11.395Z,100630.19
2019-06-08T10:41:38.835Z,100655.58
2019-06-08T10:44:11.197Z,100648.77
2019-06-08T10:46:40.326Z,100624.89
2019-06-08T10:49:09.590Z,100660.11
2019-06-08T10:51:40.887Z,100647.39
2019-06-08T10:54:11.056Z,100656.69
2019-06-08T10:56:39.237Z,100640.77
2019-06-08T10:59:11.639Z,100648.70
2019-06-08T11:01:38.643Z,100653.77
2019-06-08T11:04:08.116Z,100639.59
2019-06-08T11:06:40.145Z,100652.84
2019-06-08T11:09:12.772Z,100647.17
2019-06-08T11:11:38.638Z,100652.16
2019-06-08T11:14:12.397Z,100633.75
2019-06-08T11:16:38.535Z,100682.58
2019-06-08T11:19:11.455Z,100625.27
2019-06-08T11:21:38.584Z,100650.19
2019-06-08T11:24:22.492Z,100655.28
2019-06-08T11:26:40.263Z,100670.03
2019-06-08T11:29:11.852Z,100674.44
2019-06-08T11:31:39.275Z,100663.06
2019-06-08T11:34:08.588Z,100657.47
2019-06-08T11:36:39.450Z,100682.89
2019-06-08T11:39:10.662Z,100672.41
2019-06-08T11:41:38.651Z,100677.83
2019-06-08T11:44:11.861Z,100697.50
2019-06-08T11:46:38.451Z,100678.31
2019-06-08T11:49:12.573Z,100677.95
2019-06-08T11:51:38.205Z,100699.50
2019-06-08T11:54:25.646Z,100700.54
2019-06-08T11:56:40.098Z,100688.50
2019-06-08T11:59:07.425Z,100700.73
2019-06-08T12:01:36.083Z,100694.95
2019-06-08T12:04:05.836Z,100694.59
2019-06-08T12:06:34.542Z,100713.91
2019-06-08T12:09:04.134Z,100702.91
2019-06-08T12:11:32.985Z,100721.52
2019-06-08T12:14:02.665Z,100711.53
2019-06-08T12:16:31.233Z,100711.02
2019-06-08T12:18:59.692Z,100731.38
2019-06-08T12:21:28.275Z,100709.02
2019-06-08T12:23:56.875Z,100719.56
2019-06-08T12:26:25.492Z,100737.52
2019-06-08T12:28:54.011Z,100724.28
2019-06-08T12:31:22.990Z,100715.08
2019-06-08T12:33:51.641Z,100712.16
2019-06-08T12:36:20.986Z,100726.57
2019-06-08T12:38:49.723Z,100734.22
2019-06-08T12:41:19.393Z,100735.67
2019-06-08T12:43:48.088Z,100715.63
2019-06-08T12:46:19.121Z,100731.75
2019-06-08T12:48:46.943Z,100729.19
2019-06-08T12:51:17.230Z,100727.78
2019-06-08T12:53:46.001Z,100752.92
2019-06-08T12:56:18.662Z,100726.59
2019-06-08T12:58:47.403Z,100744.14
2019-06-08T13:01:16.578Z,100717.96
2019-06-08T13:03:45.101Z,100735.98
2019-06-08T13:06:14.022Z,100723.40
2019-06-08T13:08:42.683Z,100740.98
2019-06-08T13:11:12.322Z,100732.31
2019-06-08T13:13:40.825Z,100739.49
2019-06-08T13:16:10.509Z,100751.53
2019-06-08T13:18:40.825Z,100739.36
2019-06-08T13:21:23.375Z,100741.19
2019-06-08T13:23:41.310Z,100748.34
2019-06-08T13:26:11.498Z,100753.38
2019-06-08T13:28:40.275Z,100746.75
2019-06-08T13:31:11.657Z,100771.91
2019-06-08T13:33:39.249Z,100737.43
2019-06-08T13:36:07.699Z,100731.84
2019-06-08T13:38:38.041Z,100745.86
2019-06-08T13:41:08.616Z,100761.69
2019-06-08T13:43:40.351Z,100761.49
2019-06-08T13:46:08.191Z,100764.57
2019-06-08T13:48:37.601Z,100762.56
2019-06-08T13:51:08.421Z,100766.49
2019-06-08T13:53:38.384Z,100774.55
2019-06-08T13:56:07.810Z,100774.75
2019-06-08T13:58:38.264Z,100745.13
2019-06-08T14:01:10.031Z,100768.45
2019-06-08T14:03:38.402Z,100760.25
2019-06-08T14:06:07.696Z,100749.29
2019-06-08T14:08:38.591Z,100763.94
2019-06-08T14:11:08.286Z,100773.80
2019-06-08T14:13:38.038Z,100762.25
2019-06-08T14:16:11.208Z,100765.58
2019-06-08T14:18:38.591Z,100759.38
2019-06-08T14:21:07.527Z,100763.38
2019-06-08T14:23:38.646Z,100766.70
2019-06-08T14:26:08.324Z,100751.06
2019-06-08T14:28:38.074Z,100787.44
2019-06-08T14:31:10.582Z,100774.90
2019-06-08T14:33:38.116Z,100775.59
2019-06-08T14:36:07.983Z,100761.31
2019-06-08T14:38:41.039Z,100778.32
2019-06-08T14:41:07.594Z,100775.77
2019-06-08T14:43:38.145Z,100772.63
2019-06-08T14:46:08.084Z,100778.48
2019-06-08T14:48:38.010Z,100774.59
2019-06-08T14:51:08.820Z,100772.34
2019-06-08T14:53:38.684Z,100783.06
2019-06-08T14:56:08.924Z,100797.82
2019-06-08T14:58:38.573Z,100783.01
2019-06-08T15:01:08.018Z,100789.17
2019-06-08T15:03:37.903Z,100789.06
2019-06-08T15:06:08.137Z,100790.84
2019-06-08T15:08:36.877Z,100787.30
2019-06-08T15:11:07.905Z,100779.99
2019-06-08T15:13:38.027Z,100776.95
2019-06-08T15:16:08.115Z,100790.57
2019-06-08T15:18:38.468Z,100787.15
2019-06-08T15:21:07.966Z,100802.31
2019-06-08T15:23:36.673Z,100783.27
2019-06-08T15:26:17.611Z,100783.81
2019-06-08T15:28:36.418Z,100820.92
2019-06-08T15:31:08.141Z,100794.42
2019-06-08T15:33:35.449Z,100807.72
2019-06-08T15:36:03.987Z,100816.62
2019-06-08T15:38:33.544Z,100837.17
2019-06-08T15:41:02.063Z,100847.55
2019-06-08T15:43:35.274Z,100855.25
2019-06-08T15:46:01.031Z,100877.09
2019-06-08T15:48:32.269Z,100878.58
2019-06-08T15:51:00.630Z,100881.17
2019-06-08T15:53:31.247Z,100861.99
2019-06-08T15:55:59.426Z,100869.37
2019-06-08T15:58:29.908Z,100866.66
2019-06-08T16:00:58.211Z,100870.72
2019-06-08T16:03:27.435Z,100882.27
2019-06-08T16:05:56.192Z,100893.97
2019-06-08T16:08:25.920Z,100910.41
2019-06-08T16:10:54.699Z,100922.51
2019-06-08T16:13:24.632Z,100919.47
2019-06-08T16:15:53.215Z,100932.67
2019-06-08T16:18:21.806Z,100921.20
2019-06-08T16:20:50.319Z,100941.20
2019-06-08T16:23:18.906Z,100923.16
2019-06-08T16:25:47.538Z,100941.05
2019-06-08T16:28:16.121Z,100932.21
2019-06-08T16:30:44.909Z,100931.77
2019-06-08T16:33:13.425Z,100921.34
2019-06-08T16:35:42.011Z,100918.03
2019-06-08T16:38:10.620Z,100923.43
2019-06-08T16:40:40.499Z,100941.61
2019-06-08T16:43:09.077Z,100955.53
2019-06-08T16:45:37.673Z,100957.53
2019-06-08T16:48:06.172Z,100961.38
2019-06-08T16:50:34.687Z,100967.44
2019-06-08T16:53:03.350Z,100972.55
2019-06-08T16:55:32.151Z,100972.96
2019-06-08T16:58:00.817Z,100959.81
2019-06-08T17:00:31.472Z,100955.53
2019-06-08T17:02:59.854Z,100939.97
2019-06-08T17:05:28.906Z,100955.84
2019-06-08T17:07:57.668Z,100964.16
2019-06-08T17:10:26.300Z,100960.52
2019-06-08T17:12:54.758Z,100969.55
2019-06-08T17:15:23.522Z,100965.95
2019-06-08T17:17:52.061Z,100965.34
2019-06-08T17:20:20.740Z,100954.84
2019-06-08T17:22:49.370Z,100948.23
2019-06-08T17:25:17.993Z,100956.55
2019-06-08T17:27:46.580Z,100956.19
2019-06-08T17:30:15.578Z,100963.13
2019-06-08T17:32:44.208Z,100952.09
2019-06-08T17:35:13.068Z,100961.08
2019-06-08T17:37:41.983Z,100965.63
2019-06-08T17:40:10.989Z,100963.59
2019-06-08T17:42:39.711Z,100979.45
2019-06-08T17:45:08.509Z,100982.83
2019-06-08T17:47:38.398Z,100986.81
2019-06-08T17:50:07.587Z,100986.42
2019-06-08T17:52:37.056Z,100990.94
2019-06-08T17:55:06.729Z,100989.19
2019-06-08T17:57:45.736Z,100990.63
2019-06-08T18:00:08.104Z,100992.20
2019-06-08T18:02:39.903Z,100995.45
2019-06-08T18:05:07.533Z,101000.79
2019-06-08T18:07:38.520Z,101002.44
2019-06-08T18:10:07.311Z,100988.67
2019-06-08T18:12:39.240Z,100991.25
2019-06-08T18:15:07.978Z,100994.66
2019-06-08T18:17:40.772Z,100993.16
2019-06-08T18:20:11.861Z,100988.84
2019-06-08T18:22:42.815Z,100989.78
2019-06-08T18:25:10.923Z,100987.66
2019-06-08T18:27:41.299Z,100986.02
2019-06-08T18:30:11.976Z,101004.71
2019-06-08T18:32:42.468Z,100991.16
2019-06-08T18:35:11.486Z,100996.55
2019-06-08T18:37:41.326Z,100988.30
2019-06-08T18:40:12.921Z,100994.89
2019-06-08T18:42:42.590Z,100997.09
2019-06-08T18:45:13.314Z,101000.08
2019-06-08T18:47:42.759Z,101002.36
2019-06-08T18:50:12.848Z,101001.95
2019-06-08T18:52:44.745Z,100996.49
2019-06-08T18:55:13.222Z,101007.57
2019-06-08T18:57:42.699Z,101009.91
2019-06-08T19:00:12.705Z,101004.78
2019-06-08T19:02:43.350Z,101005.22
2019-06-08T19:05:11.520Z,101006.69
2019-06-08T19:07:41.318Z,101005.98
2019-06-08T19:10:11.255Z,101010.31
2019-06-08T19:12:41.823Z,101010.96
2019-06-08T19:15:11.447Z,101008.05
2019-06-08T19:17:46.546Z,101012.22
2019-06-08T19:20:10.478Z,101017.56
2019-06-08T19:22:43.755Z,101023.60
2019-06-08T19:25:09.746Z,101017.47
2019-06-08T19:27:43.898Z,101028.26
2019-06-08T19:30:08.745Z,101024.58
2019-06-08T19:32:41.896Z,101028.62
2019-06-08T19:35:10.113Z,101037.43
2019-06-08T19:37:39.670Z,101036.45
2019-06-08T19:40:08.312Z,101038.14
2019-06-08T19:42:45.603Z,101045.74
2019-06-08T19:45:08.725Z,101048.11
2019-06-08T19:47:38.393Z,101045.53
2019-06-08T19:50:07.931Z,101051.57
2019-06-08T19:52:40.032Z,101051.20
2019-06-08T19:55:08.193Z,101050.22
2019-06-08T19:57:36.970Z,101058.05
2019-06-08T20:00:08.821Z,101059.39
2019-06-08T20:02:37.327Z,101061.02
2019-06-08T20:05:07.635Z,101063.41
2019-06-08T20:07:37.965Z,101068.73
2019-06-08T20:10:08.177Z,101082.62
2019-06-08T20:12:37.390Z,101081.91
2019-06-08T20:15:08.648Z,101078.02
2019-06-08T20:17:37.411Z,101085.95
2019-06-08T20:20:11.166Z,101084.61
2019-06-08T20:22:39.923Z,101092.70
2019-06-08T20:25:10.584Z,101090.86
2019-06-08T20:27:39.032Z,101091.72
2019-06-08T20:30:09.618Z,101097.98
2019-06-08T20:32:38.185Z,101098.05
2019-06-08T20:35:08.215Z,101099.89
2019-06-08T20:37:38.102Z,101100.90
2019-06-08T20:40:13.661Z,101100.53
2019-06-08T20:42:38.005Z,101101.02
2019-06-08T20:45:08.115Z,101106.91
2019-06-08T20:47:39.084Z,101105.70
2019-06-08T20:50:07.780Z,101113.58
2019-06-08T20:52:37.802Z,101110.29
2019-06-08T20:55:08.091Z,101119.14
2019-06-08T20:57:36.724Z,101121.98
2019-06-08T21:00:11.679Z,101124.46
2019-06-08T21:02:39.376Z,101133.98
2019-06-08T21:05:08.331Z,101130.84
2019-06-08T21:07:36.954Z,101130.99
2019-06-08T21:10:08.551Z,101135.68
2019-06-08T21:12:39.124Z,101142.69
2019-06-08T21:15:07.907Z,101137.67
2019-06-08T21:17:38.377Z,101153.29
2019-06-08T21:20:08.562Z,101147.41
2019-06-08T21:22:37.368Z,101158.61
2019-06-08T21:25:08.669Z,101161.08
2019-06-08T21:27:38.505Z,101147.77
2019-06-08T21:30:19.914Z,101155.75
2019-06-08T21:32:38.641Z,101153.94
2019-06-08T21:35:07.736Z,101154.92
2019-06-08T21:37:37.699Z,101147.84
2019-06-08T21:40:08.475Z,101147.61
2019-06-08T21:42:37.405Z,101154.72
2019-06-08T21:45:09.743Z,101154.63
2019-06-08T21:47:38.494Z,101149.84
2019-06-08T21:50:08.245Z,101153.91
2019-06-08T21:52:37.027Z,101151.77
2019-06-08T21:55:07.228Z,101155.69
2019-06-08T21:57:37.093Z,101159.03
2019-06-08T22:00:34.603Z,101165.64
2019-06-08T22:02:41.991Z,101161.62
2019-06-08T22:05:10.670Z,101164.94
2019-06-08T22:07:39.319Z,101166.91
2019-06-08T22:10:08.599Z,101164.70
2019-06-08T22:12:40.214Z,101156.63
2019-06-08T22:15:07.993Z,101168.75
2019-06-08T22:17:38.298Z,101161.55
2019-06-08T22:20:08.279Z,101162.91
2019-06-08T22:22:37.894Z,101161.95
2019-06-08T22:25:08.180Z,101155.33
2019-06-08T22:27:38.229Z,101164.89
2019-06-08T22:30:11.639Z,101162.45
2019-06-08T22:32:38.562Z,101159.97
2019-06-08T22:35:08.149Z,101166.81
2019-06-08T22:37:38.013Z,101169.27
2019-06-08T22:40:08.383Z,101172.34
2019-06-08T22:42:37.571Z,101171.97
2019-06-08T22:45:08.904Z,101174.80
2019-06-08T22:47:38.757Z,101172.36
2019-06-08T22:50:08.083Z,101171.98
2019-06-08T22:52:37.480Z,101175.67
2019-06-08T22:55:10.222Z,101179.70
2019-06-08T22:57:37.759Z,101177.50
2019-06-08T23:00:16.666Z,101181.05
2019-06-08T23:02:38.669Z,101184.72
2019-06-08T23:05:09.150Z,101188.03
2019-06-08T23:07:37.965Z,101180.20
2019-06-08T23:10:08.938Z,101182.03
2019-06-08T23:12:38.300Z,101182.03
2019-06-08T23:15:08.803Z,101181.31
2019-06-08T23:17:38.747Z,101189.01
2019-06-08T23:20:08.813Z,101189.77
2019-06-08T23:22:40.409Z,101193.17
2019-06-08T23:25:09.745Z,101195.63
2019-06-08T23:27:38.566Z,101189.76
2019-06-08T23:30:10.025Z,101188.89
2019-06-08T23:32:39.019Z,101184.72
2019-06-08T23:35:09.589Z,101185.09
2019-06-08T23:37:38.463Z,101180.43
2019-06-08T23:40:07.994Z,101186.80
2019-06-08T23:42:38.261Z,101183.01
2019-06-08T23:45:10.865Z,101185.80
2019-06-08T23:47:39.770Z,101185.93
2019-06-08T23:50:11.293Z,101192.42
2019-06-08T23:52:38.966Z,101189.59
2019-06-08T23:55:10.490Z,101193.02
2019-06-08T23:57:38.703Z,101187.05
